Time;durP1;ratioP1;P1;durP2;ratioP2;P2;SDS_P1;SDS_P2;PMS_P1;PMS_P2;Temp;Humidity;BMP_temperature;BMP_pressure;BME280_temperature;BME280_humidity;BME280_pressure;Samples;Min_cycle;Max_cycle;Signal;HPM_P1;HPM_P2
2022/07/14 00:02:00;;;;;;;5.63;2.43;;;21.80;35.50;;;;;;5146676;27;20424;-82
2022/07/14 00:04:27;;;;;;;2.50;2.30;;;21.70;36.10;;;;;;5159247;27;20469;-83
2022/07/14 00:06:56;;;;;;;2.63;2.10;;;21.60;35.90;;;;;;5158745;27;20443;-84
2022/07/14 00:09:26;;;;;;;2.80;2.13;;;21.50;36.20;;;;;;5159765;27;20446;-83
2022/07/14 00:11:55;;;;;;;3.20;2.03;;;21.40;36.70;;;;;;5159450;27;20413;-81
2022/07/14 00:14:22;;;;;;;4.50;2.60;;;21.30;36.80;;;;;;5159025;27;20460;-82
2022/07/14 00:16:48;;;;;;;2.90;2.27;;;21.20;37.00;;;;;;5159323;27;20408;-84
2022/07/14 00:19:15;;;;;;;2.37;2.17;;;21.20;37.20;;;;;;5159113;27;20485;-83
2022/07/14 00:21:42;;;;;;;2.60;2.33;;;21.20;37.60;;;;;;5158633;27;20456;-84
2022/07/14 00:24:11;;;;;;;2.20;2.00;;;21.10;37.50;;;;;;5157041;27;20480;-82
2022/07/14 00:26:39;;;;;;;2.60;2.27;;;21.10;38.20;;;;;;5155544;27;20419;-82
2022/07/14 00:29:06;;;;;;;2.40;1.83;;;21.10;37.70;;;;;;5155145;27;20435;-82
2022/07/14 00:31:33;;;;;;;2.30;1.90;;;21.20;37.10;;;;;;5157866;27;20449;-82
2022/07/14 00:34:01;;;;;;;8.50;2.00;;;21.30;37.10;;;;;;5151036;27;20794;-81
2022/07/14 00:36:28;;;;;;;2.93;2.00;;;21.30;37.30;;;;;;5147018;27;20420;-82
2022/07/14 00:38:58;;;;;;;9.83;1.60;;;21.30;37.30;;;;;;5146597;27;20534;-81
2022/07/14 00:41:26;;;;;;;3.87;1.90;;;21.30;37.30;;;;;;5149389;27;20449;-82
2022/07/14 00:43:53;;;;;;;3.47;1.90;;;21.30;37.10;;;;;;5146137;27;20867;-82
2022/07/14 00:46:20;;;;;;;2.20;1.67;;;21.20;37.50;;;;;;5141365;27;20449;-81
2022/07/14 00:48:47;;;;;;;2.77;2.37;;;21.20;37.70;;;;;;5146583;27;20469;-82
2022/07/14 00:51:15;;;;;;;2.43;1.97;;;21.20;37.50;;;;;;5153039;27;20457;-81
2022/07/14 00:53:42;;;;;;;1.60;1.50;;;21.20;37.30;;;;;;5151723;27;20503;-81
2022/07/14 00:56:09;;;;;;;5.03;1.70;;;21.10;37.00;;;;;;5150698;27;20450;-82
2022/07/14 00:58:37;;;;;;;4.63;1.60;;;21.10;36.70;;;;;;5143052;27;20485;-82
2022/07/14 01:01:05;;;;;;;2.00;1.57;;;21.00;36.50;;;;;;5151090;27;20497;-81
2022/07/14 01:03:32;;;;;;;4.30;1.70;;;21.00;36.70;;;;;;5151671;27;20452;-82
2022/07/14 01:05:59;;;;;;;3.03;1.70;;;20.90;36.70;;;;;;5151501;27;20457;-81
2022/07/14 01:08:26;;;;;;;2.67;1.63;;;20.90;36.70;;;;;;5152681;27;20520;-83
2022/07/14 01:10:53;;;;;;;3.23;2.10;;;20.80;37.00;;;;;;5158775;27;20433;-83
2022/07/14 01:13:20;;;;;;;3.70;1.83;;;20.70;36.90;;;;;;5158763;27;20469;-82
2022/07/14 01:15:49;;;;;;;1.70;1.60;;;20.60;37.70;;;;;;5159151;27;20430;-81
2022/07/14 01:18:16;;;;;;;2.07;1.97;;;20.50;37.20;;;;;;5156264;27;20444;-82
2022/07/14 01:20:43;;;;;;;1.67;1.57;;;20.40;37.60;;;;;;5154142;27;20481;-82
2022/07/14 01:23:11;;;;;;;2.30;1.43;;;20.40;37.70;;;;;;5153237;27;20463;-81
2022/07/14 01:25:39;;;;;;;1.80;1.70;;;20.40;37.60;;;;;;5155682;27;20467;-81
2022/07/14 01:28:06;;;;;;;2.17;1.90;;;20.40;37.70;;;;;;5153703;27;20457;-81
2022/07/14 01:30:33;;;;;;;2.37;1.40;;;20.40;37.70;;;;;;5151655;27;20481;-80
2022/07/14 01:33:00;;;;;;;1.50;1.40;;;20.30;37.30;;;;;;5150759;27;20486;-82
2022/07/14 01:35:27;;;;;;;2.83;1.67;;;20.30;37.90;;;;;;5151729;27;20521;-81
2022/07/14 01:37:54;;;;;;;4.00;1.70;;;20.20;37.20;;;;;;5152202;27;20453;-82
2022/07/14 01:40:23;;;;;;;2.13;1.70;;;20.20;37.10;;;;;;5154390;27;20499;-82
2022/07/14 01:42:50;;;;;;;3.70;1.43;;;20.10;37.20;;;;;;5154569;27;20469;-81
2022/07/14 01:45:17;;;;;;;5.17;1.60;;;20.10;37.60;;;;;;5156173;28;20430;-83
2022/07/14 01:47:44;;;;;;;2.63;2.13;;;20.00;38.60;;;;;;5156318;27;20499;-82
2022/07/14 01:50:13;;;;;;;3.30;1.73;;;20.00;37.50;;;;;;5155026;27;20497;-83
2022/07/14 01:52:40;;;;;;;3.23;1.73;;;20.00;37.10;;;;;;5154945;27;20465;-81
2022/07/14 01:55:08;;;;;;;2.60;1.70;;;20.10;37.10;;;;;;5155633;28;20409;-82
2022/07/14 01:57:37;;;;;;;2.53;1.73;;;20.00;37.20;;;;;;5156655;27;20467;-82
2022/07/14 02:00:06;;;;;;;2.67;1.50;;;20.00;37.40;;;;;;5157464;27;20461;-82
2022/07/14 02:02:33;;;;;;;5.50;1.83;;;20.00;37.60;;;;;;5156799;27;20475;-82
2022/07/14 02:05:03;;;;;;;4.93;1.60;;;20.10;37.50;;;;;;5156384;27;20517;-81
2022/07/14 02:07:30;;;;;;;4.50;1.93;;;20.10;36.70;;;;;;5157200;27;20472;-81
2022/07/14 02:12:43;;;;;;;2.43;1.67;;;20.10;36.50;;;;;;5153229;27;20448;-81
2022/07/14 02:15:11;;;;;;;1.63;1.50;;;20.10;36.60;;;;;;5156746;27;20453;-84
2022/07/14 02:17:38;;;;;;;2.60;1.70;;;20.10;37.00;;;;;;5157418;27;20408;-85
2022/07/14 02:20:07;;;;;;;3.23;1.73;;;20.10;36.80;;;;;;5157122;27;20467;-81
2022/07/14 02:22:34;;;;;;;1.67;1.57;;;20.20;36.90;;;;;;5154459;27;20477;-80
2022/07/14 02:25:05;;;;;;;1.50;1.40;;;20.20;36.80;;;;;;5153892;28;20416;-83
2022/07/14 02:27:32;;;;;;;5.93;1.73;;;20.10;36.70;;;;;;5155050;28;20446;-81
2022/07/14 02:30:02;;;;;;;2.70;1.47;;;20.00;37.50;;;;;;5155313;27;20444;-80
2022/07/14 02:32:31;;;;;;;4.33;1.60;;;19.90;37.10;;;;;;5155989;27;20457;-86
2022/07/14 02:34:58;;;;;;;1.70;1.60;;;19.80;37.70;;;;;;5156707;27;20408;-81
2022/07/14 02:37:25;;;;;;;2.33;2.00;;;19.80;37.70;;;;;;5154244;28;21362;-82
2022/07/14 02:39:52;;;;;;;1.93;1.70;;;19.70;38.50;;;;;;5151500;28;20464;-80
2022/07/14 02:42:19;;;;;;;1.87;1.77;;;19.60;38.40;;;;;;5145459;28;20446;-80
2022/07/14 02:44:46;;;;;;;1.53;1.43;;;19.60;38.40;;;;;;5132314;28;20975;-81
2022/07/14 02:47:15;;;;;;;1.80;1.70;;;19.60;38.40;;;;;;5132091;28;20424;-80
2022/07/14 02:49:42;;;;;;;2.70;1.50;;;19.50;38.30;;;;;;5134767;28;20427;-81
2022/07/14 02:52:09;;;;;;;2.03;1.60;;;19.50;38.30;;;;;;5135569;28;20420;-81
2022/07/14 02:54:36;;;;;;;1.50;1.40;;;19.50;38.30;;;;;;5136531;28;20462;-80
2022/07/14 02:57:05;;;;;;;2.37;1.63;;;19.40;38.20;;;;;;5136912;28;20427;-81
2022/07/14 02:59:32;;;;;;;1.67;1.57;;;19.40;38.20;;;;;;5136352;28;20496;-81
2022/07/14 03:01:59;;;;;;;1.77;1.67;;;19.30;38.10;;;;;;5135762;28;20454;-80
2022/07/14 03:04:28;;;;;;;1.83;1.70;;;19.30;38.10;;;;;;5136189;28;20453;-81
2022/07/14 03:06:55;;;;;;;3.60;1.60;;;19.30;38.20;;;;;;5136233;28;20450;-82
2022/07/14 03:09:22;;;;;;;1.57;1.47;;;19.20;38.70;;;;;;5134816;28;20438;-80
2022/07/14 03:11:49;;;;;;;2.00;1.77;;;19.20;38.10;;;;;;5135076;28;20442;-82
2022/07/14 03:14:16;;;;;;;1.70;1.60;;;19.20;38.90;;;;;;5137488;28;20469;-80
2022/07/14 03:16:43;;;;;;;1.63;1.53;;;19.30;38.70;;;;;;5140575;28;20500;-81
2022/07/14 03:19:10;;;;;;;1.63;1.53;;;19.30;38.90;;;;;;5140787;28;20490;-80
2022/07/14 03:21:39;;;;;;;2.07;1.87;;;19.20;39.00;;;;;;5140925;28;20423;-80
2022/07/14 03:24:06;;;;;;;1.60;1.50;;;19.20;39.20;;;;;;5135996;28;20465;-81
2022/07/14 03:26:35;;;;;;;4.40;1.60;;;19.20;39.10;;;;;;5131629;28;20450;-83
2022/07/14 03:29:03;;;;;;;1.70;1.60;;;19.30;39.40;;;;;;5129043;28;20485;-81
2022/07/14 03:31:30;;;;;;;3.97;1.60;;;19.30;39.50;;;;;;5127045;28;20440;-81
2022/07/14 03:33:56;;;;;;;2.73;1.80;;;19.30;39.60;;;;;;5138993;22;20545;-82
2022/07/14 03:36:23;;;;;;;3.53;1.60;;;19.30;39.70;;;;;;5127934;28;20441;-82
2022/07/14 03:38:52;;;;;;;3.33;1.80;;;19.30;39.40;;;;;;5122436;28;20476;-80
2022/07/14 03:41:19;;;;;;;3.23;1.50;;;19.30;39.50;;;;;;5122635;28;20420;-82
2022/07/14 03:43:46;;;;;;;2.67;1.50;;;19.30;39.40;;;;;;5126073;28;20992;-80
2022/07/14 03:46:13;;;;;;;2.97;2.23;;;19.20;39.20;;;;;;5124519;28;20432;-82
2022/07/14 03:48:40;;;;;;;2.70;1.30;;;19.20;39.40;;;;;;5132747;27;20480;-81
2022/07/14 03:51:07;;;;;;;1.70;1.60;;;19.10;38.00;;;;;;5137465;27;20458;-82
2022/07/14 03:53:34;;;;;;;2.00;1.50;;;19.20;38.10;;;;;;5137209;27;20504;-81
2022/07/14 03:56:04;;;;;;;1.60;1.27;;;19.20;38.10;;;;;;5132409;28;20430;-81
2022/07/14 03:58:31;;;;;;;2.00;1.80;;;19.20;38.10;;;;;;5138244;28;20492;-80
2022/07/14 04:00:57;;;;;;;1.80;1.70;;;19.30;38.10;;;;;;5134854;28;20484;-81
2022/07/14 04:03:24;;;;;;;1.77;1.67;;;19.40;38.20;;;;;;5139324;27;20466;-81
2022/07/14 04:05:51;;;;;;;1.90;1.70;;;19.40;38.20;;;;;;5139125;27;20430;-81
2022/07/14 04:08:18;;;;;;;1.77;1.67;;;19.40;38.20;;;;;;5139529;27;20417;-81
2022/07/14 04:10:45;;;;;;;3.00;1.90;;;19.40;38.20;;;;;;5139839;27;20439;-80
2022/07/14 04:13:15;;;;;;;1.63;1.53;;;19.50;38.30;;;;;;5139976;27;20461;-81
2022/07/14 04:15:42;;;;;;;2.90;1.80;;;19.50;39.20;;;;;;5135152;27;20417;-80
2022/07/14 04:18:09;;;;;;;3.80;2.20;;;19.60;40.20;;;;;;5122455;28;20410;-80
2022/07/14 04:20:36;;;;;;;2.80;2.20;;;19.40;41.60;;;;;;5123585;28;20495;-80
2022/07/14 04:23:04;;;;;;;3.77;2.50;;;19.30;43.00;;;;;;5121846;28;20446;-80
2022/07/14 04:25:31;;;;;;;2.57;2.30;;;19.40;43.20;;;;;;5123887;28;20496;-80
2022/07/14 04:27:59;;;;;;;2.70;2.10;;;19.50;43.20;;;;;;5125297;28;20504;-79
2022/07/14 04:30:28;;;;;;;5.27;2.20;;;19.60;43.20;;;;;;5123942;28;20490;-80
2022/07/14 04:32:56;;;;;;;2.63;2.33;;;19.60;43.00;;;;;;5124260;28;20460;-78
2022/07/14 04:35:23;;;;;;;6.33;2.40;;;19.50;43.40;;;;;;5122903;28;20429;-80
2022/07/14 04:37:50;;;;;;;3.50;2.47;;;19.40;44.00;;;;;;5122279;28;20513;-78
2022/07/14 04:40:17;;;;;;;4.93;2.33;;;19.50;44.50;;;;;;5125856;28;20490;-79
2022/07/14 04:42:43;;;;;;;2.93;2.40;;;19.60;44.40;;;;;;5130266;28;21015;-79
2022/07/14 04:45:10;;;;;;;1.97;1.87;;;19.70;44.30;;;;;;5130980;28;20475;-78
2022/07/14 04:47:39;;;;;;;3.03;2.10;;;19.80;44.00;;;;;;5131717;28;20478;-78
2022/07/14 04:52:51;;;;;;;3.70;2.10;;;19.90;43.40;;;;;;5121186;28;20512;-79
2022/07/14 04:55:18;;;;;;;4.33;1.90;;;20.10;40.40;;;;;;5121348;28;20458;-79
2022/07/14 04:57:45;;;;;;;3.73;1.90;;;20.20;39.00;;;;;;5120321;28;20462;-79
2022/07/14 05:00:14;;;;;;;1.97;1.80;;;20.40;38.60;;;;;;5121663;28;20825;-78
2022/07/14 05:02:42;;;;;;;2.43;1.90;;;20.60;37.90;;;;;;5121914;28;20506;-78
2022/07/14 05:05:09;;;;;;;1.80;1.70;;;21.10;36.80;;;;;;5120611;28;20474;-79
2022/07/14 05:07:36;;;;;;;4.77;1.87;;;21.80;35.30;;;;;;5116151;28;20416;-79
2022/07/14 05:10:04;;;;;;;1.70;1.60;;;22.80;33.90;;;;;;5117450;28;20457;-79
2022/07/14 05:12:31;;;;;;;4.47;2.13;;;23.80;32.00;;;;;;5124868;28;20484;-79
2022/07/14 05:15:01;;;;;;;11.63;3.27;;;24.80;29.60;;;;;;5122163;28;20471;-79
2022/07/14 05:17:28;;;;;;;12.90;2.57;;;25.80;27.50;;;;;;5120572;28;20768;-79
2022/07/14 05:19:57;;;;;;;13.97;2.50;;;26.50;26.40;;;;;;5121488;28;20605;-79
2022/07/14 05:22:24;;;;;;;7.03;2.00;;;27.30;25.50;;;;;;5120301;28;20451;-80
2022/07/14 05:24:52;;;;;;;12.33;2.20;;;28.00;24.70;;;;;;5122049;28;20482;-80
2022/07/14 05:27:19;;;;;;;9.73;2.10;;;28.60;22.60;;;;;;5121264;28;20493;-80
2022/07/14 05:29:46;;;;;;;4.20;2.20;;;28.50;22.50;;;;;;5123184;28;20865;-80
2022/07/14 05:32:13;;;;;;;3.33;1.70;;;28.20;22.40;;;;;;5120884;28;20558;-80
2022/07/14 05:34:43;;;;;;;4.23;1.73;;;27.80;22.80;;;;;;5123684;28;20535;-80
2022/07/14 05:37:12;;;;;;;1.80;1.50;;;27.70;22.80;;;;;;5120547;28;20453;-79
2022/07/14 05:39:39;;;;;;;4.80;2.00;;;27.20;23.60;;;;;;5121106;28;20488;-80
2022/07/14 05:42:06;;;;;;;6.00;2.13;;;26.90;24.20;;;;;;5123014;28;20455;-80
2022/07/14 05:44:35;;;;;;;6.37;2.37;;;26.30;25.00;;;;;;5119611;28;20825;-80
2022/07/14 05:47:02;;;;;;;10.27;2.40;;;25.70;25.50;;;;;;5121773;28;20518;-80
2022/07/14 05:49:29;;;;;;;13.13;2.37;;;25.50;26.00;;;;;;5122205;28;20474;-80
2022/07/14 05:51:56;;;;;;;6.07;2.47;;;25.80;25.50;;;;;;5121009;28;20484;-80
2022/07/14 05:54:24;;;;;;;8.67;1.93;;;26.10;24.90;;;;;;5118981;28;20485;-79
2022/07/14 05:56:51;;;;;;;4.60;1.77;;;25.90;24.80;;;;;;5118058;28;20811;-80
2022/07/14 05:59:18;;;;;;;7.30;1.93;;;25.80;26.00;;;;;;5121588;28;20490;-79
2022/07/14 06:01:45;;;;;;;6.37;2.17;;;25.80;25.70;;;;;;5124184;28;20825;-80
2022/07/14 06:04:12;;;;;;;8.60;2.10;;;25.60;26.80;;;;;;5123195;28;20543;-80
2022/07/14 06:06:39;;;;;;;5.13;2.10;;;25.50;26.90;;;;;;5119138;28;20433;-79
2022/07/14 06:09:06;;;;;;;9.07;2.50;;;25.20;26.70;;;;;;5117613;28;20525;-79
2022/07/14 06:11:36;;;;;;;9.30;2.63;;;24.90;26.60;;;;;;5118864;28;20450;-80
2022/07/14 06:14:04;;;;;;;6.43;1.90;;;24.90;27.40;;;;;;5117748;28;20445;-79
2022/07/14 06:16:31;;;;;;;10.10;2.20;;;24.80;27.70;;;;;;5116283;28;20440;-79
2022/07/14 06:18:58;;;;;;;3.90;2.10;;;24.90;28.00;;;;;;5117190;28;20447;-79
2022/07/14 06:21:25;;;;;;;4.20;1.87;;;24.90;27.80;;;;;;5117802;28;20551;-79
2022/07/14 06:23:52;;;;;;;10.27;2.40;;;24.80;27.90;;;;;;5120041;28;20485;-80
2022/07/14 06:26:18;;;;;;;6.93;2.20;;;24.70;28.20;;;;;;5125000;28;20504;-80
2022/07/14 06:28:47;;;;;;;14.30;2.90;;;24.80;28.30;;;;;;5126455;28;20453;-80
2022/07/14 06:31:14;;;;;;;7.10;1.80;;;25.00;27.80;;;;;;5127263;28;20432;-79
2022/07/14 06:33:41;;;;;;;9.77;2.17;;;25.40;27.50;;;;;;5129138;28;20482;-79
2022/07/14 06:36:09;;;;;;;7.20;2.50;;;26.00;26.40;;;;;;5136200;28;20414;-81
2022/07/14 06:38:36;;;;;;;3.03;1.90;;;27.00;25.40;;;;;;5134287;28;20461;-80
2022/07/14 06:41:03;;;;;;;3.23;1.70;;;27.40;24.80;;;;;;5139264;28;20501;-80
2022/07/14 06:43:30;;;;;;;4.80;1.80;;;27.60;24.10;;;;;;5139909;27;20504;-80
2022/07/14 06:45:58;;;;;;;4.47;1.70;;;27.70;23.90;;;;;;5138954;28;20462;-81
2022/07/14 06:48:25;;;;;;;3.37;1.90;;;27.90;23.60;;;;;;5136023;28;20469;-79
2022/07/14 06:50:52;;;;;;;6.00;2.47;;;28.50;22.40;;;;;;5127730;28;20546;-80
2022/07/14 06:53:19;;;;;;;4.73;2.63;;;28.90;21.50;;;;;;5126105;28;20477;-80
2022/07/14 06:55:46;;;;;;;4.13;2.30;;;28.90;21.70;;;;;;5124445;28;20455;-81
2022/07/14 06:58:13;;;;;;;5.13;2.13;;;28.80;21.50;;;;;;5128057;28;20455;-80
2022/07/14 07:00:40;;;;;;;5.90;2.00;;;28.90;21.00;;;;;;5128736;28;20499;-79
2022/07/14 07:03:12;;;;;;;2.10;1.60;;;28.90;21.20;;;;;;5130626;28;20444;-80
2022/07/14 07:08:24;;;;;;;2.10;1.90;;;28.70;21.20;;;;;;5130533;28;20429;-80
2022/07/14 07:10:51;;;;;;;8.67;1.70;;;28.40;21.60;;;;;;5127308;28;20443;-80
2022/07/14 07:13:18;;;;;;;2.30;1.93;;;27.90;21.60;;;;;;5129119;28;20491;-81
2022/07/14 07:15:45;;;;;;;3.53;2.10;;;27.60;22.50;;;;;;5129820;28;20446;-80
2022/07/14 07:18:13;;;;;;;4.53;2.00;;;27.50;22.70;;;;;;5126793;28;20453;-80
2022/07/14 07:20:40;;;;;;;4.50;2.23;;;27.50;22.70;;;;;;5127316;28;20583;-79
2022/07/14 07:23:07;;;;;;;5.80;2.23;;;27.50;22.80;;;;;;5130434;28;20462;-79
2022/07/14 07:25:34;;;;;;;3.73;1.90;;;27.40;22.60;;;;;;5129503;28;20463;-79
2022/07/14 07:28:01;;;;;;;7.50;1.90;;;27.40;22.40;;;;;;5128115;28;20427;-79
2022/07/14 07:30:28;;;;;;;1.73;1.63;;;27.40;22.50;;;;;;5132765;28;20454;-79
2022/07/14 07:32:55;;;;;;;4.67;2.50;;;27.40;22.30;;;;;;5133489;27;20458;-80
2022/07/14 07:35:24;;;;;;;5.27;2.53;;;27.20;22.80;;;;;;5131466;28;20536;-79
2022/07/14 07:37:51;;;;;;;2.00;1.90;;;27.10;22.90;;;;;;5133104;28;20448;-80
2022/07/14 07:40:18;;;;;;;5.27;2.13;;;27.10;23.20;;;;;;5133673;28;21051;-79
2022/07/14 07:42:45;;;;;;;4.47;2.33;;;27.10;23.30;;;;;;5134327;28;20524;-80
2022/07/14 07:45:12;;;;;;;2.00;1.90;;;27.30;23.30;;;;;;5134287;28;20451;-80
2022/07/14 07:47:39;;;;;;;4.57;2.20;;;27.40;23.30;;;;;;5136902;28;20459;-80
2022/07/14 07:50:07;;;;;;;2.07;1.87;;;27.60;23.50;;;;;;5136799;28;20449;-80
2022/07/14 07:52:35;;;;;;;3.57;2.00;;;27.80;23.00;;;;;;5135666;28;20461;-80
2022/07/14 07:55:02;;;;;;;5.17;2.07;;;27.80;23.10;;;;;;5137243;27;20551;-79
2022/07/14 07:57:29;;;;;;;6.17;2.20;;;27.90;22.80;;;;;;5138144;28;20428;-80
2022/07/14 07:59:56;;;;;;;8.03;2.33;;;27.80;23.00;;;;;;5136440;28;20460;-80
2022/07/14 08:02:24;;;;;;;7.17;1.77;;;27.70;23.30;;;;;;5137049;27;20418;-80
2022/07/14 08:04:51;;;;;;;8.30;1.90;;;27.70;23.60;;;;;;5135300;28;20484;-79
2022/07/14 08:07:18;;;;;;;6.83;2.30;;;27.80;23.50;;;;;;5135305;28;20425;-80
2022/07/14 08:09:47;;;;;;;5.80;2.23;;;27.90;23.70;;;;;;5135834;28;20468;-80
2022/07/14 08:12:14;;;;;;;7.57;2.10;;;28.00;23.30;;;;;;5135575;28;20540;-79
2022/07/14 08:14:50;;;;;;;2.33;1.80;;;28.10;22.90;;;;;;5137249;27;20471;-80
2022/07/14 08:17:17;;;;;;;5.67;2.10;;;28.10;22.60;;;;;;5137618;28;20431;-80
2022/07/14 08:19:44;;;;;;;4.10;1.67;;;28.20;22.60;;;;;;5135885;28;20446;-79
2022/07/14 08:22:11;;;;;;;3.53;2.50;;;28.40;22.30;;;;;;5137326;28;20539;-79
2022/07/14 08:24:39;;;;;;;5.33;1.60;;;28.70;22.10;;;;;;5137411;27;20444;-80
2022/07/14 08:27:07;;;;;;;4.67;2.43;;;28.60;21.90;;;;;;5135998;28;20457;-79
2022/07/14 08:29:34;;;;;;;7.60;2.30;;;28.80;21.50;;;;;;5135180;27;20503;-80
2022/07/14 08:32:01;;;;;;;1.90;1.80;;;29.10;20.80;;;;;;5138457;27;20478;-80
2022/07/14 08:34:28;;;;;;;2.87;1.80;;;29.20;20.70;;;;;;5137467;28;20518;-79
2022/07/14 08:36:55;;;;;;;4.23;1.73;;;29.10;20.80;;;;;;5138058;28;20528;-80
2022/07/14 08:39:22;;;;;;;6.27;2.10;;;29.10;21.10;;;;;;5137302;27;20459;-80
2022/07/14 08:41:50;;;;;;;6.60;1.93;;;29.10;21.40;;;;;;5136723;28;20511;-80
2022/07/14 08:44:19;;;;;;;3.83;1.77;;;29.20;20.20;;;;;;5133782;28;20632;-80
2022/07/14 08:46:46;;;;;;;3.23;1.70;;;29.40;20.10;;;;;;5137304;27;20485;-80
2022/07/14 08:49:14;;;;;;;10.80;2.20;;;29.70;18.90;;;;;;5137364;27;20464;-80
2022/07/14 08:51:43;;;;;;;4.37;2.23;;;29.90;18.50;;;;;;5137552;28;20440;-80
2022/07/14 08:54:10;;;;;;;3.90;1.83;;;30.00;17.80;;;;;;5137628;27;20469;-80
2022/07/14 08:56:38;;;;;;;10.93;2.03;;;30.00;17.60;;;;;;5136015;27;20484;-80
2022/07/14 08:59:05;;;;;;;6.90;1.80;;;30.00;17.40;;;;;;5137464;27;20449;-80
2022/07/14 09:01:33;;;;;;;6.23;2.03;;;30.10;17.90;;;;;;5137364;27;20524;-80
2022/07/14 09:04:01;;;;;;;2.80;1.90;;;30.30;17.50;;;;;;5136219;27;20483;-81
2022/07/14 09:06:52;;;;;;;6.60;1.80;;;30.40;17.10;;;;;;5136157;28;20457;-81
2022/07/14 09:09:21;;;;;;;1.90;1.80;;;30.60;17.30;;;;;;5133068;27;20850;-80
2022/07/14 09:11:53;;;;;;;6.17;2.10;;;30.60;17.20;;;;;;5137812;27;20516;-81
2022/07/14 09:14:20;;;;;;;4.33;1.90;;;30.70;16.90;;;;;;5137056;27;20461;-80
2022/07/14 09:16:49;;;;;;;6.03;2.10;;;30.80;16.30;;;;;;5137476;27;20444;-80
2022/07/14 09:19:16;;;;;;;3.70;2.03;;;30.80;16.20;;;;;;5137452;27;20441;-80
2022/07/14 09:21:47;;;;;;;8.83;2.03;;;30.80;16.20;;;;;;5137596;27;20545;-80
2022/07/14 09:24:15;;;;;;;20.63;2.50;;;30.80;15.80;;;;;;5137899;27;20634;-80
2022/07/14 09:26:46;;;;;;;3.23;1.80;;;30.80;15.80;;;;;;5137938;27;20523;-79
2022/07/14 09:29:19;;;;;;;2.30;1.90;;;31.00;15.10;;;;;;5137891;27;20509;-80
2022/07/14 09:31:47;;;;;;;2.00;1.90;;;31.10;14.80;;;;;;5137638;27;20421;-81
2022/07/14 09:34:28;;;;;;;2.60;1.93;;;31.30;14.90;;;;;;5137147;27;20491;-81
2022/07/14 09:37:11;;;;;;;3.73;2.13;;;31.50;15.00;;;;;;5138253;27;20437;-82
2022/07/14 09:39:51;;;;;;;2.13;1.87;;;31.70;15.10;;;;;;5137974;27;20437;-81
2022/07/14 09:42:18;;;;;;;5.80;2.00;;;31.80;14.50;;;;;;5137793;27;20502;-80
2022/07/14 09:44:45;;;;;;;6.87;1.70;;;32.00;14.50;;;;;;5137140;27;20483;-81
2022/07/14 09:47:12;;;;;;;3.40;1.90;;;32.00;14.10;;;;;;5137016;27;20421;-81
2022/07/14 09:49:41;;;;;;;3.30;2.17;;;32.10;14.70;;;;;;5137015;28;20525;-80
2022/07/14 09:52:08;;;;;;;2.57;1.90;;;32.20;15.40;;;;;;5136402;28;20441;-80
2022/07/14 09:54:43;;;;;;;4.63;2.00;;;32.20;15.40;;;;;;5130322;28;20487;-80
2022/07/14 09:57:24;;;;;;;2.53;2.13;;;31.90;15.20;;;;;;5124549;28;20466;-80
2022/07/14 09:59:53;;;;;;;4.73;2.00;;;31.90;13.90;;;;;;5129806;28;20455;-81
2022/07/14 10:02:28;;;;;;;2.07;1.87;;;31.90;14.10;;;;;;5126184;28;20866;-80
2022/07/14 10:05:01;;;;;;;5.07;1.83;;;31.90;13.90;;;;;;5125507;28;20466;-81
2022/07/14 10:07:33;;;;;;;6.20;1.80;;;31.80;14.20;;;;;;5126155;28;20453;-81
2022/07/14 10:10:04;;;;;;;4.33;1.87;;;31.70;14.20;;;;;;5125663;28;20466;-80
2022/07/14 10:12:32;;;;;;;2.20;2.00;;;31.70;13.60;;;;;;5127574;28;20459;-80
2022/07/14 10:15:02;;;;;;;3.40;1.93;;;31.90;14.20;;;;;;5129913;28;20471;-80
2022/07/14 10:17:30;;;;;;;3.93;1.80;;;32.00;14.70;;;;;;5126158;28;20825;-81
2022/07/14 10:19:59;;;;;;;1.93;1.60;;;32.20;14.30;;;;;;5126129;28;20443;-81
2022/07/14 10:22:26;;;;;;;2.13;1.50;;;32.30;14.10;;;;;;5125129;28;20519;-80
2022/07/14 10:24:53;;;;;;;3.77;1.73;;;32.30;14.00;;;;;;5127446;28;20473;-81
2022/07/14 10:27:21;;;;;;;2.80;2.00;;;32.40;13.70;;;;;;5131271;28;20502;-80
2022/07/14 10:29:52;;;;;;;10.23;1.90;;;32.20;13.30;;;;;;5128712;28;20535;-81
2022/07/14 10:32:30;;;;;;;1.60;1.50;;;32.20;13.20;;;;;;5126135;28;20486;-81
2022/07/14 10:35:07;;;;;;;1.63;1.53;;;32.30;13.40;;;;;;5125594;28;20536;-80
2022/07/14 10:37:55;;;;;;;3.73;1.40;;;32.50;13.10;;;;;;5129461;28;20445;-80
2022/07/14 10:40:34;;;;;;;2.17;1.50;;;32.70;13.10;;;;;;5125446;28;20527;-80
2022/07/14 10:43:06;;;;;;;4.80;1.60;;;32.90;13.20;;;;;;5125979;28;20473;-81
2022/07/14 10:45:34;;;;;;;5.10;1.53;;;33.00;13.00;;;;;;5125703;28;20460;-81
2022/07/14 10:48:01;;;;;;;3.40;2.20;;;33.10;13.00;;;;;;5128034;28;20512;-80
2022/07/14 10:50:43;;;;;;;16.00;2.10;;;33.00;12.70;;;;;;5127781;28;20524;-81
2022/07/14 10:53:10;;;;;;;2.03;1.83;;;33.10;13.00;;;;;;5080467;27;20455;-80
2022/07/14 10:55:39;;;;;;;1.90;1.80;;;33.20;12.60;;;;;;5140923;27;20455;-81
2022/07/14 10:58:29;;;;;;;2.60;2.00;;;32.80;12.80;;;;;;5140126;27;20449;-79
2022/07/14 11:00:59;;;;;;;3.00;1.80;;;32.70;13.70;;;;;;5139082;27;20505;-79
2022/07/14 11:03:28;;;;;;;1.77;1.67;;;32.90;13.20;;;;;;5140111;28;20451;-79
2022/07/14 11:06:20;;;;;;;4.50;1.60;;;32.90;13.60;;;;;;5138758;27;20428;-80
2022/07/14 11:09:41;;;;;;;2.50;1.70;;;32.80;13.30;;;;;;5140837;27;20447;-79
2022/07/14 11:12:09;;;;;;;3.13;1.57;;;33.00;13.10;;;;;;5140120;27;20453;-80
2022/07/14 11:14:40;;;;;;;2.43;2.10;;;33.20;13.20;;;;;;5140064;27;20500;-79
2022/07/14 11:17:07;;;;;;;2.80;1.50;;;33.30;13.60;;;;;;5140078;27;20431;-80
2022/07/14 11:19:37;;;;;;;3.73;1.60;;;33.30;12.80;;;;;;5140413;27;20460;-80
2022/07/14 11:22:17;;;;;;;5.53;1.87;;;33.20;12.00;;;;;;5140172;27;20481;-79
2022/07/14 11:24:51;;;;;;;2.50;2.00;;;33.10;12.00;;;;;;5140274;27;20477;-79
2022/07/14 11:27:36;;;;;;;4.50;1.73;;;33.10;11.90;;;;;;5140289;27;20438;-80
2022/07/14 11:30:26;;;;;;;4.13;1.70;;;33.10;12.30;;;;;;5140472;27;20416;-80
2022/07/14 11:33:04;;;;;;;11.73;2.10;;;33.10;12.60;;;;;;5140161;27;20434;-80
2022/07/14 11:38:30;;;;;;;3.40;2.10;;;33.20;12.60;;;;;;5140149;27;20410;-80
2022/07/14 11:40:57;;;;;;;3.23;1.80;;;33.30;13.00;;;;;;5139466;27;20408;-80
2022/07/14 11:43:50;;;;;;;12.03;1.90;;;33.20;12.80;;;;;;5139677;27;20497;-80
2022/07/14 11:46:20;;;;;;;7.87;2.30;;;33.10;13.40;;;;;;5139617;27;20444;-80
2022/07/14 11:48:50;;;;;;;4.53;2.10;;;32.90;13.50;;;;;;5140190;27;20506;-80
2022/07/14 11:51:20;;;;;;;4.83;2.13;;;32.80;14.00;;;;;;5139763;27;20425;-80
2022/07/14 11:54:04;;;;;;;6.83;2.43;;;33.10;14.00;;;;;;5139595;27;20452;-81
2022/07/14 11:56:31;;;;;;;4.60;1.97;;;33.30;13.60;;;;;;5140257;27;20444;-81
2022/07/14 11:59:03;;;;;;;4.20;2.00;;;33.20;13.60;;;;;;5140198;27;20431;-80
2022/07/14 12:01:35;;;;;;;3.73;1.90;;;33.30;13.60;;;;;;5139968;27;20442;-80
2022/07/14 12:04:10;;;;;;;4.10;1.90;;;33.50;13.40;;;;;;5139859;27;20509;-81
2022/07/14 12:06:40;;;;;;;5.13;2.10;;;33.60;13.20;;;;;;5139967;27;20427;-80
2022/07/14 12:09:09;;;;;;;2.10;1.90;;;33.90;13.00;;;;;;5139330;27;20454;-80
2022/07/14 12:11:36;;;;;;;8.10;2.30;;;34.00;12.70;;;;;;5139612;27;20462;-82
2022/07/14 12:14:04;;;;;;;3.40;1.90;;;34.20;12.50;;;;;;5139568;27;20460;-82
2022/07/14 12:16:42;;;;;;;8.13;2.23;;;34.00;12.30;;;;;;5139596;27;20453;-83
2022/07/14 12:19:09;;;;;;;1.83;1.73;;;34.10;12.40;;;;;;5139739;27;20575;-83
2022/07/14 12:21:37;;;;;;;4.20;2.20;;;34.10;12.00;;;;;;5138662;27;20497;-82
2022/07/14 12:24:10;;;;;;;7.10;1.93;;;33.90;12.70;;;;;;5139410;27;20460;-82
2022/07/14 12:26:39;;;;;;;2.33;1.97;;;34.00;12.20;;;;;;5139341;27;20520;-81
2022/07/14 12:29:07;;;;;;;6.23;2.10;;;34.10;12.00;;;;;;5139292;27;20441;-83
2022/07/14 12:31:39;;;;;;;10.27;2.27;;;34.10;12.00;;;;;;5139192;27;20500;-82
2022/07/14 12:34:06;;;;;;;1.43;1.33;;;34.30;12.10;;;;;;5139153;27;20470;-81
2022/07/14 12:36:33;;;;;;;4.40;1.80;;;34.30;12.10;;;;;;5139381;27;20455;-82
2022/07/14 12:39:03;;;;;;;4.70;1.97;;;34.50;12.20;;;;;;5138940;27;20433;-81
2022/07/14 12:41:30;;;;;;;6.53;1.83;;;34.70;12.30;;;;;;5138732;27;20555;-82
2022/07/14 12:44:04;;;;;;;2.17;1.97;;;34.90;12.20;;;;;;5139091;27;20446;-82
2022/07/14 12:46:31;;;;;;;6.90;2.37;;;35.20;11.80;;;;;;5138867;27;20493;-82
2022/07/14 12:49:00;;;;;;;11.40;2.20;;;35.40;11.40;;;;;;5139251;27;20430;-82
2022/07/14 12:51:30;;;;;;;13.33;2.00;;;35.80;11.20;;;;;;5138861;27;20512;-82
2022/07/14 12:54:06;;;;;;;9.93;1.83;;;35.90;10.50;;;;;;5138639;27;20448;-81
2022/07/14 12:56:35;;;;;;;4.90;1.77;;;35.60;10.60;;;;;;5139099;27;20463;-82
2022/07/14 12:59:05;;;;;;;5.23;2.20;;;35.70;10.50;;;;;;5138832;27;20478;-81
2022/07/14 13:01:33;;;;;;;1.90;1.70;;;35.80;10.80;;;;;;5138485;27;20448;-81
2022/07/14 13:04:01;;;;;;;2.83;1.77;;;36.40;10.00;;;;;;5138831;27;20500;-81
2022/07/14 13:06:42;;;;;;;5.47;1.80;;;36.50;9.60;;;;;;5138683;27;20447;-83